Time;durP1;ratioP1;P1;durP2;ratioP2;P2;SDS_P1;SDS_P2;PMS_P1;PMS_P2;Temp;Humidity;BMP_temperature;BMP_pressure;BME280_temperature;BME280_humidity;BME280_pressure;Samples;Min_cycle;Max_cycle;Signal;HPM_P1;HPM_P2
2023/10/11 00:00:52;;;;;;;15.13;13.60;;;17.00;24.60;;;;;;6225027;23;20929;-80
2023/10/11 00:05:42;;;;;;;14.97;13.07;;;17.00;24.40;;;;;;6274379;23;20365;-80
2023/10/11 00:08:16;;;;;;;15.67;13.30;;;17.00;24.40;;;;;;6263595;23;20441;-80
2023/10/11 00:10:47;;;;;;;14.80;13.47;;;16.90;24.30;;;;;;6232353;23;20442;-81
2023/10/11 00:13:17;;;;;;;15.37;11.80;;;16.90;24.30;;;;;;6251099;22;20462;-80
2023/10/11 00:15:50;;;;;;;13.27;11.77;;;16.90;24.30;;;;;;6224163;23;20436;-80
2023/10/11 00:18:26;;;;;;;14.33;13.03;;;16.90;24.20;;;;;;6265028;23;20359;-80
2023/10/11 00:20:52;;;;;;;14.93;13.60;;;16.90;24.20;;;;;;6236723;23;20371;-80
2023/10/11 00:23:23;;;;;;;14.03;12.70;;;16.90;24.20;;;;;;6263549;22;20390;-80
2023/10/11 00:25:50;;;;;;;16.57;11.90;;;16.90;24.40;;;;;;6236855;23;20394;-80
2023/10/11 00:28:17;;;;;;;13.67;12.27;;;16.90;24.50;;;;;;6236029;23;20378;-80
2023/10/11 00:30:49;;;;;;;14.60;12.30;;;16.90;24.60;;;;;;6249519;23;20420;-81
2023/10/11 00:33:15;;;;;;;13.13;12.03;;;16.90;24.70;;;;;;6221329;23;21028;-81
2023/10/11 00:35:48;;;;;;;13.47;12.07;;;16.80;24.90;;;;;;6249347;23;20453;-81
2023/10/11 00:38:18;;;;;;;14.37;12.97;;;16.90;25.00;;;;;;6222053;23;20143;-81
2023/10/11 00:43:39;;;;;;;13.67;12.37;;;16.90;24.90;;;;;;6249203;22;20398;-81
2023/10/11 00:46:10;;;;;;;12.80;11.50;;;16.80;24.90;;;;;;6246440;23;20354;-81
2023/10/11 00:51:24;;;;;;;13.60;12.40;;;16.80;24.40;;;;;;6256496;23;20902;-80
2023/10/11 00:53:51;;;;;;;16.13;12.63;;;16.80;24.50;;;;;;6218941;23;20459;-81
2023/10/11 00:56:20;;;;;;;15.40;13.20;;;16.80;24.60;;;;;;6220092;23;20382;-81
2023/10/11 00:58:49;;;;;;;13.73;12.40;;;16.80;24.60;;;;;;6252335;23;20371;-80
2023/10/11 01:01:15;;;;;;;16.30;12.90;;;16.80;25.00;;;;;;6250600;23;20381;-80
2023/10/11 01:03:41;;;;;;;13.60;12.20;;;16.80;24.90;;;;;;6226132;23;20398;-80
2023/10/11 01:06:10;;;;;;;15.20;13.70;;;16.70;24.90;;;;;;6246757;23;20147;-80
2023/10/11 01:08:40;;;;;;;12.80;11.70;;;16.70;25.50;;;;;;6220054;23;20163;-80
2023/10/11 01:11:11;;;;;;;14.93;12.67;;;16.60;25.40;;;;;;6220368;23;20957;-80
2023/10/11 01:13:42;;;;;;;12.60;11.50;;;16.50;24.90;;;;;;6219617;23;20407;-80
2023/10/11 01:16:11;;;;;;;12.77;11.70;;;16.30;25.00;;;;;;6218112;23;20379;-80
2023/10/11 01:18:42;;;;;;;17.03;12.50;;;16.20;25.20;;;;;;6218433;23;20382;-80
2023/10/11 01:21:08;;;;;;;14.87;12.60;;;16.20;25.50;;;;;;6217279;23;20382;-80
2023/10/11 01:23:35;;;;;;;15.33;11.83;;;16.10;25.90;;;;;;6219855;23;20401;-80
2023/10/11 01:26:07;;;;;;;13.23;11.93;;;16.10;26.10;;;;;;6220729;23;20386;-80
2023/10/11 01:28:40;;;;;;;14.20;12.90;;;16.00;26.00;;;;;;6247378;23;20362;-80
2023/10/11 01:31:10;;;;;;;14.57;13.17;;;16.10;26.30;;;;;;6246876;23;20929;-80
2023/10/11 01:33:42;;;;;;;13.37;12.17;;;16.20;26.10;;;;;;6220190;23;20405;-80
2023/10/11 01:36:09;;;;;;;15.20;13.60;;;16.20;25.70;;;;;;6220641;23;20488;-80
2023/10/11 01:38:46;;;;;;;13.53;12.30;;;16.30;25.90;;;;;;6221049;23;20473;-80
2023/10/11 01:41:26;;;;;;;14.57;13.27;;;16.40;25.20;;;;;;6221047;23;20727;-81
2023/10/11 01:43:53;;;;;;;13.20;12.00;;;16.50;25.00;;;;;;6220196;23;20460;-80
2023/10/11 01:46:26;;;;;;;13.63;12.37;;;16.50;24.90;;;;;;6248635;23;20378;-80
2023/10/11 01:48:53;;;;;;;12.93;11.73;;;16.50;24.90;;;;;;6221015;23;20378;-80
2023/10/11 01:51:26;;;;;;;15.80;12.67;;;16.50;24.80;;;;;;6221016;23;20480;-80
2023/10/11 01:53:52;;;;;;;13.80;12.60;;;16.50;24.90;;;;;;6220196;23;20465;-81
2023/10/11 01:56:18;;;;;;;14.37;12.63;;;16.50;24.90;;;;;;6248047;23;20924;-80
2023/10/11 01:58:43;;;;;;;13.50;12.17;;;16.50;24.80;;;;;;6220474;23;20385;-81
2023/10/11 02:01:26;;;;;;;13.37;11.07;;;16.50;24.80;;;;;;6219878;23;20162;-80
2023/10/11 02:04:00;;;;;;;13.10;12.10;;;16.50;24.70;;;;;;6220805;23;20233;-79
2023/10/11 02:06:31;;;;;;;13.40;12.10;;;16.50;24.60;;;;;;6219452;23;20401;-81
2023/10/11 02:08:58;;;;;;;14.07;12.77;;;16.50;24.60;;;;;;6222462;23;20375;-81
2023/10/11 02:11:25;;;;;;;14.80;12.83;;;16.50;24.80;;;;;;6249003;23;20445;-81
2023/10/11 02:13:52;;;;;;;14.27;12.90;;;16.50;24.70;;;;;;6221755;23;20425;-81
2023/10/11 02:16:18;;;;;;;13.97;11.90;;;16.50;24.80;;;;;;6249759;23;20602;-81
2023/10/11 02:18:51;;;;;;;13.10;12.00;;;16.50;24.80;;;;;;6222679;23;20465;-81
2023/10/11 02:21:17;;;;;;;13.27;11.97;;;16.50;24.70;;;;;;6249283;23;20363;-80
2023/10/11 02:23:43;;;;;;;11.90;10.97;;;16.50;24.60;;;;;;6249418;22;20402;-81
2023/10/11 02:26:12;;;;;;;12.43;11.33;;;16.50;24.80;;;;;;6249062;23;20366;-81
2023/10/11 02:28:39;;;;;;;13.63;12.17;;;16.50;24.80;;;;;;6248807;23;20378;-81
2023/10/11 02:31:05;;;;;;;13.70;12.50;;;16.50;24.80;;;;;;6247326;23;20417;-81
2023/10/11 02:33:33;;;;;;;13.30;12.30;;;16.50;24.70;;;;;;6221731;23;20778;-81
2023/10/11 02:36:08;;;;;;;11.87;11.07;;;16.50;24.60;;;;;;6221519;23;20386;-81
2023/10/11 02:38:38;;;;;;;13.83;12.57;;;16.50;24.40;;;;;;6221610;23;20465;-81
2023/10/11 02:41:04;;;;;;;13.83;12.43;;;16.50;24.50;;;;;;6249132;23;20374;-81
2023/10/11 02:43:33;;;;;;;13.73;12.30;;;16.50;24.40;;;;;;6220965;23;20413;-81
2023/10/11 02:45:59;;;;;;;13.27;12.10;;;16.50;24.40;;;;;;6222532;23;20163;-81
2023/10/11 02:48:27;;;;;;;15.90;12.17;;;16.40;24.30;;;;;;6249176;23;20720;-81
2023/10/11 02:50:55;;;;;;;12.90;11.70;;;16.50;24.20;;;;;;6221026;23;20452;-81
2023/10/11 02:53:21;;;;;;;12.67;11.67;;;16.40;24.30;;;;;;6248970;22;20386;-81
2023/10/11 02:55:59;;;;;;;13.97;12.37;;;16.40;24.40;;;;;;6221845;23;20397;-81
2023/10/11 02:58:26;;;;;;;13.93;12.60;;;16.40;24.40;;;;;;6248240;23;20525;-81
2023/10/11 03:00:59;;;;;;;13.30;12.20;;;16.40;24.20;;;;;;6249066;23;20375;-81
2023/10/11 03:03:26;;;;;;;12.23;11.10;;;16.40;24.30;;;;;;6222975;23;20405;-81
2023/10/11 03:05:55;;;;;;;13.10;12.17;;;16.40;24.40;;;;;;6221561;23;20389;-81
2023/10/11 03:08:21;;;;;;;13.50;12.40;;;16.40;24.50;;;;;;6247759;23;20402;-81
2023/10/11 03:10:54;;;;;;;15.03;13.33;;;16.40;24.50;;;;;;6250351;23;20464;-81
2023/10/11 03:13:24;;;;;;;13.60;12.60;;;16.30;24.60;;;;;;6223008;23;20402;-81
2023/10/11 03:15:56;;;;;;;13.50;12.40;;;16.30;24.50;;;;;;6224881;23;20381;-81
2023/10/11 03:18:33;;;;;;;13.67;12.67;;;16.30;24.60;;;;;;6251074;23;20429;-80
2023/10/11 03:21:19;;;;;;;13.97;12.60;;;16.30;24.70;;;;;;6251002;23;20416;-81
2023/10/11 03:23:54;;;;;;;15.60;13.10;;;16.30;24.90;;;;;;6224527;22;20795;-80
2023/10/11 03:26:30;;;;;;;12.97;11.80;;;16.30;24.80;;;;;;6217738;23;20462;-78
2023/10/11 03:28:57;;;;;;;14.10;12.80;;;16.30;24.70;;;;;;6217577;23;20793;-80
2023/10/11 03:31:31;;;;;;;13.20;12.03;;;16.30;24.80;;;;;;6215738;23;20503;-77
2023/10/11 03:33:59;;;;;;;14.93;13.07;;;16.30;24.90;;;;;;6215228;23;20430;-78
2023/10/11 03:36:43;;;;;;;12.90;11.67;;;16.30;25.10;;;;;;6215350;23;20859;-81
2023/10/11 03:39:09;;;;;;;13.70;11.73;;;16.30;24.90;;;;;;6215292;23;20372;-78
2023/10/11 03:41:45;;;;;;;13.93;12.23;;;16.30;25.00;;;;;;6217082;23;20410;-80
2023/10/11 03:44:17;;;;;;;14.13;12.93;;;16.20;25.00;;;;;;6216363;23;20394;-80
2023/10/11 03:46:47;;;;;;;13.43;12.13;;;16.20;25.10;;;;;;6217180;23;20399;-80
2023/10/11 03:51:48;;;;;;;14.33;11.00;;;16.20;25.00;;;;;;6216430;23;20441;-78
2023/10/11 03:54:21;;;;;;;14.30;12.97;;;16.20;24.90;;;;;;6216537;23;20402;-79
2023/10/11 03:56:54;;;;;;;13.10;12.10;;;16.20;25.00;;;;;;6213670;23;20375;-80
2023/10/11 03:59:26;;;;;;;14.47;11.90;;;16.20;25.00;;;;;;6212718;23;20946;-79
2023/10/11 04:01:53;;;;;;;15.57;11.87;;;16.20;25.00;;;;;;6214012;23;20399;-80
2023/10/11 04:04:22;;;;;;;12.67;11.67;;;16.20;25.00;;;;;;6211930;23;20395;-79
2023/10/11 04:06:51;;;;;;;13.07;12.00;;;16.30;25.10;;;;;;6213177;23;20409;-80
2023/10/11 04:12:00;;;;;;;13.77;12.57;;;16.20;25.10;;;;;;6226952;23;20441;-80
2023/10/11 04:20:18;;;;;;;14.47;13.37;;;16.20;25.20;;;;;;6217559;23;20856;-79
2023/10/11 04:23:01;;;;;;;14.30;13.00;;;16.20;25.30;;;;;;6190448;23;20718;-80
2023/10/11 04:25:27;;;;;;;12.53;11.63;;;16.20;25.10;;;;;;6216490;23;20413;-80
2023/10/11 04:28:02;;;;;;;13.97;12.93;;;16.20;25.20;;;;;;6217626;23;20407;-80
2023/10/11 04:30:40;;;;;;;14.30;12.90;;;16.20;25.20;;;;;;6217111;23;20462;-80
2023/10/11 04:33:10;;;;;;;13.10;12.10;;;16.30;25.10;;;;;;6217062;23;20351;-79
2023/10/11 04:35:42;;;;;;;14.00;12.83;;;16.30;25.10;;;;;;6216425;23;20893;-81
2023/10/11 04:38:11;;;;;;;13.73;12.60;;;16.30;25.10;;;;;;6218434;23;20852;-80
2023/10/11 04:40:52;;;;;;;14.37;12.80;;;16.30;25.00;;;;;;6217505;23;20379;-80
2023/10/11 04:43:25;;;;;;;13.03;11.83;;;16.30;25.50;;;;;;6218007;23;20364;-80
2023/10/11 04:45:54;;;;;;;12.57;11.67;;;16.30;24.90;;;;;;6216738;23;20399;-79
2023/10/11 04:48:36;;;;;;;12.93;11.77;;;16.30;24.90;;;;;;6218352;23;20396;-80
2023/10/11 04:53:58;;;;;;;13.57;12.40;;;16.30;24.80;;;;;;6217258;23;20363;-84
2023/10/11 04:59:59;;;;;;;13.63;12.63;;;16.30;25.00;;;;;;6225312;23;20367;-83
2023/10/11 05:03:03;;;;;;;13.23;12.10;;;16.30;24.90;;;;;;6185681;23;20375;-82
2023/10/11 05:09:04;;;;;;;14.17;12.70;;;16.20;25.20;;;;;;6219544;23;20403;-81
2023/10/11 05:11:43;;;;;;;12.47;11.20;;;16.20;25.20;;;;;;6218310;23;20983;-80
2023/10/11 05:14:29;;;;;;;14.23;12.80;;;16.20;25.30;;;;;;6192132;23;20407;-81
2023/10/11 05:28:26;;;;;;;13.60;12.40;;;16.20;25.20;;;;;;6218165;23;20374;-82
2023/10/11 05:51:59;;;;;;;13.80;12.77;;;16.10;25.40;;;;;;6220606;23;20410;-83
2023/10/11 05:54:55;;;;;;;14.47;13.17;;;16.10;25.40;;;;;;6218984;23;20395;-82
2023/10/11 05:57:27;;;;;;;15.23;13.73;;;16.10;25.50;;;;;;6177761;23;20387;-83
2023/10/11 05:59:56;;;;;;;16.20;14.40;;;16.10;25.50;;;;;;6214564;23;20387;-82
2023/10/11 06:02:25;;;;;;;14.90;12.70;;;16.00;25.50;;;;;;6216730;23;20371;-84
2023/10/11 06:04:55;;;;;;;15.63;14.00;;;16.00;25.70;;;;;;6215142;23;20907;-83
2023/10/11 06:07:37;;;;;;;14.93;13.47;;;16.10;25.60;;;;;;6216589;23;20383;-81
2023/10/11 06:10:07;;;;;;;14.47;13.00;;;16.10;25.40;;;;;;6215544;23;20788;-78
2023/10/11 06:12:33;;;;;;;15.67;14.23;;;16.10;25.50;;;;;;6217480;23;20399;-79
2023/10/11 06:15:15;;;;;;;14.53;13.17;;;16.10;25.60;;;;;;6215822;23;20770;-79
2023/10/11 06:17:48;;;;;;;15.03;13.10;;;16.10;25.50;;;;;;6214915;23;20379;-79
2023/10/11 06:20:27;;;;;;;18.67;13.40;;;16.10;25.50;;;;;;6215198;23;20356;-80
2023/10/11 06:22:56;;;;;;;14.30;12.90;;;16.10;25.40;;;;;;6216879;23;20360;-83
2023/10/11 06:25:23;;;;;;;14.27;12.13;;;16.10;25.50;;;;;;6216780;23;20874;-81
2023/10/11 06:28:09;;;;;;;14.40;12.90;;;16.10;25.50;;;;;;6216925;23;20378;-81
2023/10/11 06:30:35;;;;;;;14.57;13.20;;;16.10;25.50;;;;;;6215261;23;20411;-81
2023/10/11 06:33:05;;;;;;;14.10;13.00;;;16.20;25.50;;;;;;6213797;23;20410;-78
2023/10/11 06:36:14;;;;;;;14.07;12.43;;;16.20;25.30;;;;;;6216814;23;20559;-78
2023/10/11 06:38:41;;;;;;;14.40;12.90;;;16.20;25.30;;;;;;6246286;23;20549;-79
2023/10/11 06:41:45;;;;;;;14.73;13.50;;;16.10;25.30;;;;;;6219388;23;20383;-82
2023/10/11 06:44:11;;;;;;;14.77;13.57;;;16.10;25.40;;;;;;6220359;23;20904;-80
2023/10/11 06:46:46;;;;;;;14.30;13.03;;;16.20;25.70;;;;;;6244491;23;20366;-79
2023/10/11 06:49:14;;;;;;;15.73;14.20;;;16.20;25.30;;;;;;6218849;23;20158;-79
2023/10/11 06:51:41;;;;;;;16.70;14.47;;;16.20;25.30;;;;;;6218969;23;20461;-80
2023/10/11 06:54:32;;;;;;;14.50;13.10;;;16.20;25.20;;;;;;6248564;22;20735;-80
2023/10/11 06:57:01;;;;;;;15.27;13.77;;;16.30;25.10;;;;;;6250666;23;20578;-80
2023/10/11 06:59:29;;;;;;;14.57;13.27;;;16.20;25.50;;;;;;6249514;23;20820;-80
2023/10/11 07:02:00;;;;;;;14.70;13.20;;;16.30;25.20;;;;;;6223288;23;20388;-81
2023/10/11 07:04:36;;;;;;;15.73;13.17;;;16.30;24.90;;;;;;6222020;23;20409;-81
2023/10/11 07:07:07;;;;;;;15.23;13.60;;;16.30;24.90;;;;;;6222161;23;20389;-79
2023/10/11 07:09:39;;;;;;;14.73;13.43;;;16.40;25.00;;;;;;6224494;23;20733;-82
2023/10/11 07:15:05;;;;;;;20.60;14.80;;;16.40;24.70;;;;;;6200091;23;20405;-82
2023/10/11 07:17:32;;;;;;;15.17;13.87;;;16.50;24.80;;;;;;6251797;23;20371;-79
2023/10/11 07:19:57;;;;;;;15.60;14.20;;;16.50;24.30;;;;;;6250181;23;20355;-81
2023/10/11 07:22:26;;;;;;;14.93;13.60;;;16.60;24.10;;;;;;6249738;23;20681;-81
2023/10/11 07:25:18;;;;;;;15.87;14.17;;;16.60;24.00;;;;;;6249788;22;20225;-81
2023/10/11 07:27:43;;;;;;;15.07;13.57;;;16.70;24.00;;;;;;6248391;23;20449;-79
2023/10/11 07:30:16;;;;;;;15.37;13.97;;;16.70;23.40;;;;;;6221738;23;20397;-80
2023/10/11 07:32:43;;;;;;;13.63;12.27;;;16.80;23.20;;;;;;6248488;23;20131;-80
2023/10/11 07:35:18;;;;;;;19.20;14.90;;;16.80;23.20;;;;;;6249334;22;21093;-81
2023/10/11 07:37:44;;;;;;;17.50;13.53;;;16.90;23.00;;;;;;6248340;23;20387;-81
2023/10/11 07:40:20;;;;;;;19.53;13.63;;;17.00;23.10;;;;;;6249505;23;20378;-81
2023/10/11 07:42:54;;;;;;;16.47;12.77;;;17.00;23.60;;;;;;6224563;23;20214;-83
2023/10/11 07:45:21;;;;;;;13.70;12.60;;;17.00;22.80;;;;;;6233659;23;20431;-80
2023/10/11 07:47:48;;;;;;;16.17;13.23;;;17.10;22.60;;;;;;6233756;23;20390;-80
2023/10/11 07:50:22;;;;;;;14.33;12.90;;;17.10;22.40;;;;;;6233786;23;20498;-79
2023/10/11 07:52:50;;;;;;;13.90;12.67;;;17.10;22.60;;;;;;6235794;23;20377;-79
2023/10/11 07:58:10;;;;;;;13.57;12.17;;;17.20;22.70;;;;;;6278167;22;20429;-81
2023/10/11 08:00:55;;;;;;;;;;;;;;;;;;;;;
2023/10/11 08:03:20;;;;;;;13.37;12.30;;;17.30;22.30;;;;;;6278947;22;20441;-79
2023/10/11 08:06:08;;;;;;;13.70;12.40;;;17.30;22.30;;;;;;6251328;22;20875;-79
2023/10/11 08:08:37;;;;;;;13.83;12.43;;;17.40;22.40;;;;;;6247631;23;20215;-79
2023/10/11 08:11:22;;;;;;;12.97;11.73;;;17.40;22.20;;;;;;6247427;23;20432;-81
2023/10/11 08:13:49;;;;;;;13.60;12.30;;;17.40;22.10;;;;;;6219195;22;20898;-79
2023/10/11 08:16:36;;;;;;;17.53;12.70;;;17.50;21.80;;;;;;6247080;23;20371;-80
2023/10/11 08:19:04;;;;;;;13.00;11.83;;;17.50;21.60;;;;;;6221178;23;20746;-81
2023/10/11 08:21:39;;;;;;;12.87;11.67;;;17.60;21.50;;;;;;6220504;23;21124;-79
2023/10/11 08:24:15;;;;;;;12.20;11.03;;;17.70;21.20;;;;;;6248486;22;20479;-82
2023/10/11 08:26:45;;;;;;;13.00;11.70;;;17.70;21.20;;;;;;6247560;23;21160;-81
2023/10/11 08:29:17;;;;;;;17.63;12.53;;;17.80;21.10;;;;;;6221742;23;20701;-80
2023/10/11 08:31:52;;;;;;;12.87;10.80;;;17.80;21.10;;;;;;6247634;23;20402;-79
2023/10/11 08:34:20;;;;;;;12.10;10.90;;;17.80;20.70;;;;;;6219420;23;20408;-80
2023/10/11 08:55:29;;;;;;;;;;;;;;;;;;;;;
2023/10/11 08:58:51;;;;;;;13.87;12.27;;;18.30;20.50;;;;;;6008539;23;20483;-81
2023/10/11 09:01:45;;;;;;;13.70;12.10;;;18.40;20.60;;;;;;6051710;23;20406;-82
2023/10/11 09:04:27;;;;;;;15.27;13.37;;;18.40;20.60;;;;;;6104515;23;20956;-80
2023/10/11 09:10:49;;;;;;;15.27;12.97;;;18.60;20.00;;;;;;6248682;23;20385;-81
2023/10/11 09:13:37;;;;;;;15.67;14.23;;;18.90;19.70;;;;;;6248674;23;20347;-82
2023/10/11 09:16:12;;;;;;;18.40;13.23;;;19.10;19.40;;;;;;6247886;23;20362;-81
2023/10/11 09:18:38;;;;;;;11.97;10.97;;;19.30;18.70;;;;;;6248124;23;20361;-80
2023/10/11 09:21:29;;;;;;;12.40;11.30;;;19.50;18.50;;;;;;6249230;23;20447;-81
2023/10/11 09:28:22;;;;;;;15.80;11.63;;;19.80;17.40;;;;;;6152841;23;20457;-81
2023/10/11 09:31:41;;;;;;;13.83;12.50;;;20.00;17.20;;;;;;6220628;23;20429;-80
2023/10/11 09:34:51;;;;;;;12.63;11.40;;;20.10;15.40;;;;;;6123748;23;20465;-81
2023/10/11 09:37:20;;;;;;;12.87;11.67;;;20.30;15.10;;;;;;6125116;23;20358;-82
2023/10/11 09:39:51;;;;;;;12.63;11.63;;;20.40;14.80;;;;;;6125649;23;20917;-80
2023/10/11 09:42:16;;;;;;;16.63;12.03;;;20.60;14.30;;;;;;6104154;23;20370;-83
2023/10/11 09:44:45;;;;;;;14.33;12.60;;;20.70;14.00;;;;;;6150256;23;20502;-83
2023/10/11 09:47:19;;;;;;;17.23;12.33;;;20.70;14.00;;;;;;6249517;23;20139;-82
2023/10/11 09:49:52;;;;;;;13.20;12.10;;;20.80;13.60;;;;;;6249478;23;20378;-83
2023/10/11 09:52:51;;;;;;;17.70;14.27;;;20.80;13.60;;;;;;6221449;23;20429;-80
2023/10/11 09:55:57;;;;;;;14.03;12.73;;;21.00;13.80;;;;;;6249854;22;20389;-82
2023/10/11 10:00:37;;;;;;;12.20;11.30;;;21.00;13.80;;;;;;6255210;23;20414;-81
2023/10/11 10:09:52;;;;;;;24.93;11.00;;;21.70;10.40;;;;;;5984307;24;20427;-82
2023/10/11 10:12:22;;;;;;;9.57;8.60;;;22.10;10.40;;;;;;6008192;23;20438;-82
2023/10/11 10:50:13;;;;;;;;;;;;;;;;;;;;;
2023/10/11 11:04:06;;;;;;;10.60;9.87;;;23.40;7.70;;;;;;5860595;24;20384;-79
2023/10/11 11:10:54;;;;;;;15.77;9.90;;;23.40;8.00;;;;;;5965770;23;20376;-80
2023/10/11 11:13:49;;;;;;;10.10;9.20;;;23.40;7.50;;;;;;6039395;23;20956;-79
2023/10/11 11:17:31;;;;;;;12.03;10.90;;;23.40;8.10;;;;;;6119159;23;20391;-80
2023/10/11 11:21:07;;;;;;;;;;;;;;;;;;;;;
2023/10/11 11:35:43;;;;;;;12.60;9.27;;;24.20;6.60;;;;;;6235956;22;20943;-79
2023/10/11 11:38:58;;;;;;;;;;;;;;;;;;;;;
2023/10/11 11:42:45;;;;;;;;;;;;;;;;;;;;;
2023/10/11 11:55:57;;;;;;;10.47;9.30;;;24.60;4.80;;;;;;6080450;23;20446;-80
2023/10/11 12:02:35;;;;;;;10.73;9.70;;;24.50;7.20;;;;;;6105336;23;20500;-79
2023/10/11 12:09:41;;;;;;;;;;;;;;;;;;;;;
2023/10/11 12:13:22;;;;;;;;;;;;;;;;;;;;;
2023/10/11 12:49:20;;;;;;;9.30;8.60;;;23.70;6.10;;;;;;6247735;23;20480;-79
2023/10/11 12:52:07;;;;;;;9.00;8.17;;;23.80;6.50;;;;;;6241591;23;20863;-79
2023/10/11 12:55:44;;;;;;;;;;;;;;;;;;;;;
2023/10/11 12:58:13;;;;;;;11.63;8.93;;;23.90;5.20;;;;;;6187777;23;20458;-80
2023/10/11 13:00:51;;;;;;;10.00;9.00;;;24.00;3.50;;;;;;6217289;23;20419;-79
2023/10/11 13:04:08;;;;;;;7.63;7.10;;;24.20;4.30;;;;;;6219217;23;20352;-78
2023/10/11 13:17:15;;;;;;;8.77;8.10;;;24.60;3.00;;;;;;5960045;23;20378;-79
2023/10/11 13:19:43;;;;;;;7.60;7.20;;;24.80;1.00;;;;;;6121986;23;20377;-81
2023/10/11 13:22:12;;;;;;;8.37;7.43;;;25.00;1.00;;;;;;6216961;23;20422;-80
2023/10/11 13:24:38;;;;;;;8.47;7.90;;;25.20;1.00;;;;;;6192044;23;20414;-80
2023/10/11 13:27:07;;;;;;;6.70;6.40;;;25.20;1.00;;;;;;6217916;23;20375;-79
2023/10/11 13:29:32;;;;;;;9.40;7.97;;;25.30;1.00;;;;;;6218592;23;20227;-79
2023/10/11 13:31:58;;;;;;;8.37;7.80;;;25.30;1.00;;;;;;6219118;23;20380;-79
2023/10/11 13:34:28;;;;;;;8.70;7.83;;;25.40;1.00;;;;;;6218103;23;20194;-79
2023/10/11 13:36:57;;;;;;;7.90;7.20;;;25.50;1.00;;;;;;6191740;23;20383;-80
2023/10/11 13:39:26;;;;;;;7.97;7.57;;;25.50;1.00;;;;;;6217991;23;20372;-78
2023/10/11 13:42:09;;;;;;;8.90;8.40;;;25.30;1.50;;;;;;6218340;23;20406;-82
2023/10/11 13:44:37;;;;;;;8.40;7.83;;;25.20;1.30;;;;;;6218795;23;20387;-81
2023/10/11 13:47:03;;;;;;;7.80;7.40;;;25.10;1.40;;;;;;6218498;23;20363;-80
2023/10/11 13:49:33;;;;;;;8.73;7.97;;;25.00;1.30;;;;;;6217247;23;20363;-80
2023/10/11 13:52:03;;;;;;;7.43;7.03;;;24.90;2.30;;;;;;6219541;23;20386;-82
2023/10/11 13:59:45;;;;;;;7.70;7.10;;;24.60;1.70;;;;;;6255949;22;20445;-78
2023/10/11 14:05:20;;;;;;;7.40;6.80;;;24.90;1.00;;;;;;6260432;22;20393;-78
2023/10/11 14:11:22;;;;;;;61.60;13.00;;;25.10;1.00;;;;;;6193753;23;20804;-79
2023/10/11 14:14:24;;;;;;;;;;;;;;;;;;;;;
2023/10/11 14:17:08;;;;;;;45.43;10.40;;;25.20;1.00;;;;;;6229835;23;20416;-79
2023/10/11 14:27:28;;;;;;;;;;;;;;;;;;;;;
2023/10/11 14:30:49;;;;;;;;;;;;;;;;;;;;;
2023/10/11 14:37:19;;;;;;;7.97;7.33;;;24.60;2.20;;;;;;6042539;23;20407;-79
2023/10/11 14:43:43;;;;;;;8.30;7.57;;;24.60;1.20;;;;;;5982363;23;20407;-80
2023/10/11 14:46:09;;;;;;;8.20;7.40;;;24.80;1.30;;;;;;6126045;23;20441;-81
2023/10/11 14:49:10;;;;;;;7.13;6.73;;;24.70;1.20;;;;;;6100574;23;20382;-79
2023/10/11 14:51:41;;;;;;;6.90;6.33;;;24.90;1.00;;;;;;6248523;23;20135;-79
2023/10/11 14:54:07;;;;;;;7.67;6.87;;;24.80;1.90;;;;;;6249510;22;20781;-81
2023/10/11 14:56:34;;;;;;;7.57;6.87;;;24.70;2.10;;;;;;6221767;23;20386;-80
2023/10/11 14:59:12;;;;;;;7.17;6.50;;;24.80;1.00;;;;;;6250369;23;20224;-80
2023/10/11 15:01:38;;;;;;;7.97;7.20;;;24.90;1.00;;;;;;6250146;23;20409;-79
2023/10/11 15:04:09;;;;;;;7.27;6.87;;;24.80;1.00;;;;;;6251225;22;20393;-80
2023/10/11 15:08:20;;;;;;;10.80;6.70;;;24.80;1.00;;;;;;6226467;23;20378;-80
2023/10/11 15:10:23;;;;;;;7.57;7.03;;;24.70;1.00;;;;;;6242015;23;20381;-80
2023/10/11 15:13:11;;;;;;;8.90;8.10;;;24.70;1.00;;;;;;6247677;23;20786;-81
2023/10/11 15:23:04;;;;;;;8.87;7.43;;;24.50;1.40;;;;;;5989163;23;20382;-80
2023/10/11 15:26:19;;;;;;;;;;;;;;;;;;;;;
2023/10/11 16:02:02;;;;;;;8.17;7.43;;;23.50;3.80;;;;;;5872124;24;20436;-82
2023/10/11 16:24:42;;;;;;;9.47;8.63;;;22.90;5.30;;;;;;5875876;24;20474;-80
2023/10/11 16:27:13;;;;;;;9.87;9.03;;;22.80;5.50;;;;;;5996324;23;20386;-80
2023/10/11 16:29:38;;;;;;;9.20;8.30;;;22.70;6.00;;;;;;6249698;23;20350;-80
2023/10/11 16:32:05;;;;;;;9.57;8.53;;;22.70;6.00;;;;;;6250427;23;20371;-81
2023/10/11 16:34:30;;;;;;;8.73;7.87;;;22.60;5.90;;;;;;6248431;22;20421;-79
2023/10/11 16:36:56;;;;;;;9.73;9.13;;;22.50;6.30;;;;;;6247541;23;20370;-79
2023/10/11 16:39:21;;;;;;;8.60;8.00;;;22.40;6.80;;;;;;6220612;23;20155;-81
2023/10/11 16:41:47;;;;;;;9.20;8.50;;;22.30;7.10;;;;;;6247919;23;20175;-79
2023/10/11 16:44:13;;;;;;;9.47;8.70;;;22.30;7.90;;;;;;6248196;22;20163;-80
2023/10/11 16:46:39;;;;;;;9.60;8.90;;;22.20;7.90;;;;;;6220740;23;20424;-79
2023/10/11 16:49:06;;;;;;;9.13;8.43;;;22.20;8.20;;;;;;6248137;23;20860;-79
2023/10/11 16:51:32;;;;;;;10.63;9.73;;;22.00;8.30;;;;;;6248434;23;20461;-79
2023/10/11 16:53:57;;;;;;;9.80;8.90;;;22.00;8.70;;;;;;6221324;22;20777;-79
2023/10/11 16:56:23;;;;;;;9.30;8.37;;;21.90;8.90;;;;;;6222477;23;20162;-80
2023/10/11 16:58:50;;;;;;;10.17;9.37;;;21.80;9.00;;;;;;6221900;23;20185;-80
2023/10/11 17:01:16;;;;;;;11.00;10.10;;;21.80;9.20;;;;;;6249854;23;20504;-79
2023/10/11 17:03:42;;;;;;;14.90;9.57;;;21.70;9.40;;;;;;6249189;22;20427;-79
2023/10/11 17:06:08;;;;;;;9.10;8.40;;;21.70;9.60;;;;;;6249607;23;20159;-80
2023/10/11 17:08:38;;;;;;;9.90;9.00;;;21.60;9.70;;;;;;6249872;23;20675;-79
2023/10/11 17:11:10;;;;;;;9.40;8.70;;;21.60;9.70;;;;;;6249562;23;20405;-79
2023/10/11 17:13:36;;;;;;;10.03;9.13;;;21.50;9.80;;;;;;6249845;22;20351;-79
2023/10/11 17:16:03;;;;;;;10.10;9.00;;;21.50;10.00;;;;;;6249695;23;20409;-80
2023/10/11 17:18:34;;;;;;;9.87;8.87;;;21.40;10.20;;;;;;6223734;23;20378;-79
2023/10/11 17:21:00;;;;;;;9.77;8.87;;;21.40;10.40;;;;;;6250371;23;20402;-79
2023/10/11 17:23:25;;;;;;;11.10;10.27;;;21.40;11.00;;;;;;6223123;23;20449;-79
2023/10/11 17:25:54;;;;;;;8.80;8.20;;;21.30;11.10;;;;;;6247147;22;20959;-79
2023/10/11 17:28:20;;;;;;;10.17;9.47;;;21.20;11.70;;;;;;6221772;23;20169;-79
2023/10/11 17:30:46;;;;;;;10.30;9.30;;;21.20;11.50;;;;;;6248379;23;20410;-80
2023/10/11 17:33:12;;;;;;;8.67;7.97;;;21.10;11.20;;;;;;6221075;23;20282;-80
2023/10/11 17:35:38;;;;;;;9.57;8.70;;;21.10;11.10;;;;;;6249127;22;20167;-82
2023/10/11 17:38:06;;;;;;;9.13;8.43;;;21.10;11.40;;;;;;6225043;23;20773;-80
2023/10/11 17:40:40;;;;;;;9.47;8.70;;;21.10;11.50;;;;;;6253430;23;20784;-82
2023/10/11 17:43:06;;;;;;;12.47;9.80;;;21.00;11.60;;;;;;6253889;23;20390;-80
2023/10/11 17:45:33;;;;;;;10.50;9.50;;;21.00;11.90;;;;;;6251502;22;20757;-80
2023/10/11 17:47:59;;;;;;;10.90;10.00;;;21.00;11.80;;;;;;6224266;23;20427;-80
2023/10/11 17:50:30;;;;;;;12.10;11.20;;;20.90;11.90;;;;;;6223129;23;20804;-84
2023/10/11 17:52:56;;;;;;;10.20;9.23;;;20.90;12.00;;;;;;6249365;23;20363;-79
2023/10/11 17:55:28;;;;;;;11.10;10.03;;;20.90;12.40;;;;;;6251657;22;20864;-82
2023/10/11 17:57:56;;;;;;;12.30;11.20;;;20.80;12.50;;;;;;6253545;23;20158;-81
2023/10/11 18:00:26;;;;;;;11.57;10.40;;;20.80;12.50;;;;;;6253467;23;20430;-82
2023/10/11 18:02:54;;;;;;;12.13;11.07;;;20.80;12.50;;;;;;6226852;23;20383;-81
2023/10/11 18:05:20;;;;;;;11.13;10.23;;;20.70;12.50;;;;;;6253106;22;20414;-81
2023/10/11 18:07:50;;;;;;;10.88;9.93;;;20.80;12.60;;;;;;6252578;23;20372;-82
2023/10/11 18:10:17;;;;;;;10.60;9.70;;;20.70;12.50;;;;;;6253100;23;20203;-81
2023/10/11 18:12:44;;;;;;;10.13;9.23;;;20.70;12.60;;;;;;6253493;23;20378;-82
2023/10/11 18:15:11;;;;;;;11.43;10.50;;;20.70;12.80;;;;;;6254114;22;20390;-82
2023/10/11 18:17:39;;;;;;;11.50;10.30;;;20.60;12.90;;;;;;6227216;23;20718;-81
2023/10/11 18:20:16;;;;;;;11.13;9.53;;;20.60;12.90;;;;;;6253318;23;20394;-80
2023/10/11 18:22:43;;;;;;;10.23;9.40;;;20.60;13.30;;;;;;6253564;23;20402;-79
2023/10/11 18:25:16;;;;;;;10.57;9.77;;;20.60;13.50;;;;;;6225813;23;20406;-81
2023/10/11 18:27:58;;;;;;;11.00;10.10;;;20.50;13.40;;;;;;6225141;23;20408;-80
2023/10/11 18:30:24;;;;;;;10.50;9.23;;;20.50;13.40;;;;;;6225931;23;20379;-81
2023/10/11 18:32:50;;;;;;;11.73;10.63;;;20.50;13.40;;;;;;6253284;23;20367;-81
2023/10/11 18:35:16;;;;;;;11.53;10.50;;;20.40;13.40;;;;;;6253969;22;20402;-81
2023/10/11 18:37:42;;;;;;;11.60;10.57;;;20.40;13.40;;;;;;6253079;23;20159;-80
2023/10/11 18:40:30;;;;;;;10.60;9.70;;;20.40;13.40;;;;;;6253534;23;20375;-80